sensor_id;sensor_type;location;lat;lon;timestamp;temperature;humidity
7155;DHT22;3619;53.784;10.440;2023-03-01T00:02:22;-0.20;99.90
7155;DHT22;3619;53.784;10.440;2023-03-01T00:04:49;-0.30;99.90
7155;DHT22;3619;53.784;10.440;2023-03-01T00:07:15;-0.30;99.90
7155;DHT22;3619;53.784;10.440;2023-03-01T00:09:42;-0.30;99.90
7155;DHT22;3619;53.784;10.440;2023-03-01T00:12:11;-0.30;99.90
7155;DHT22;3619;53.784;10.440;2023-03-01T00:14:38;-0.40;99.90
7155;DHT22;3619;53.784;10.440;2023-03-01T00:17:04;-0.40;99.90
7155;DHT22;3619;53.784;10.440;2023-03-01T00:19:33;-0.50;99.90
7155;DHT22;3619;53.784;10.440;2023-03-01T00:21:59;-0.50;99.90
7155;DHT22;3619;53.784;10.440;2023-03-01T00:24:26;-0.50;99.90
7155;DHT22;3619;53.784;10.440;2023-03-01T00:26:53;-0.50;99.90
7155;DHT22;3619;53.784;10.440;2023-03-01T00:29:22;-0.50;99.90
7155;DHT22;3619;53.784;10.440;2023-03-01T00:31:49;-0.50;99.90
7155;DHT22;3619;53.784;10.440;2023-03-01T00:34:16;-0.50;99.90
7155;DHT22;3619;53.784;10.440;2023-03-01T00:36:44;-0.60;99.90
7155;DHT22;3619;53.784;10.440;2023-03-01T00:39:12;-0.50;99.90
7155;DHT22;3619;53.784;10.440;2023-03-01T00:41:40;-0.50;99.90
7155;DHT22;3619;53.784;10.440;2023-03-01T00:44:07;-0.60;99.90
7155;DHT22;3619;53.784;10.440;2023-03-01T00:46:33;-0.60;99.90
7155;DHT22;3619;53.784;10.440;2023-03-01T00:49:00;-0.70;99.90
7155;DHT22;3619;53.784;10.440;2023-03-01T00:51:30;-0.80;99.90
7155;DHT22;3619;53.784;10.440;2023-03-01T00:54:00;-0.80;99.90
7155;DHT22;3619;53.784;10.440;2023-03-01T00:56:27;-0.80;99.90
7155;DHT22;3619;53.784;10.440;2023-03-01T00:58:55;-0.80;99.90
7155;DHT22;3619;53.784;10.440;2023-03-01T01:01:24;-0.80;99.90
7155;DHT22;3619;53.784;10.440;2023-03-01T01:03:54;-0.80;99.90
7155;DHT22;3619;53.784;10.440;2023-03-01T01:06:23;-0.90;99.90
7155;DHT22;3619;53.784;10.440;2023-03-01T01:08:52;-1.00;99.90
7155;DHT22;3619;53.784;10.440;2023-03-01T01:11:22;-1.00;99.90
7155;DHT22;3619;53.784;10.440;2023-03-01T01:13:49;-1.10;99.90
7155;DHT22;3619;53.784;10.440;2023-03-01T01:16:18;-1.00;99.90
7155;DHT22;3619;53.784;10.440;2023-03-01T01:18:45;-1.00;99.90
7155;DHT22;3619;53.784;10.440;2023-03-01T01:21:13;-1.10;99.90
7155;DHT22;3619;53.784;10.440;2023-03-01T01:23:41;-1.00;99.90
7155;DHT22;3619;53.784;10.440;2023-03-01T01:26:10;-1.00;99.90
7155;DHT22;3619;53.784;10.440;2023-03-01T01:28:38;-1.00;99.90
7155;DHT22;3619;53.784;10.440;2023-03-01T01:31:06;-1.00;99.90
7155;DHT22;3619;53.784;10.440;2023-03-01T01:33:33;-1.10;99.90
7155;DHT22;3619;53.784;10.440;2023-03-01T01:36:00;-1.10;99.90
7155;DHT22;3619;53.784;10.440;2023-03-01T01:38:27;-1.20;99.90
7155;DHT22;3619;53.784;10.440;2023-03-01T01:40:53;-1.20;99.90
7155;DHT22;3619;53.784;10.440;2023-03-01T01:43:23;-1.20;99.90
7155;DHT22;3619;53.784;10.440;2023-03-01T01:45:55;-1.20;99.90
7155;DHT22;3619;53.784;10.440;2023-03-01T01:48:27;-1.20;99.90
7155;DHT22;3619;53.784;10.440;2023-03-01T01:51:09;-1.10;99.90
7155;DHT22;3619;53.784;10.440;2023-03-01T01:53:38;-1.00;99.90
7155;DHT22;3619;53.784;10.440;2023-03-01T01:56:08;-1.00;99.90
7155;DHT22;3619;53.784;10.440;2023-03-01T01:58:36;-1.00;99.90
7155;DHT22;3619;53.784;10.440;2023-03-01T02:01:05;-0.90;99.90
7155;DHT22;3619;53.784;10.440;2023-03-01T02:03:33;-0.90;99.90
7155;DHT22;3619;53.784;10.440;2023-03-01T02:06:06;-0.80;99.90
7155;DHT22;3619;53.784;10.440;2023-03-01T02:08:36;-0.70;99.90
7155;DHT22;3619;53.784;10.440;2023-03-01T02:11:04;-0.80;99.90
7155;DHT22;3619;53.784;10.440;2023-03-01T02:13:33;-0.60;99.90
7155;DHT22;3619;53.784;10.440;2023-03-01T02:16:04;-0.70;99.90
7155;DHT22;3619;53.784;10.440;2023-03-01T02:18:31;-0.70;99.90
7155;DHT22;3619;53.784;10.440;2023-03-01T02:21:08;-0.70;99.90
7155;DHT22;3619;53.784;10.440;2023-03-01T02:23:38;-0.80;99.90
7155;DHT22;3619;53.784;10.440;2023-03-01T02:26:10;-0.80;99.90
7155;DHT22;3619;53.784;10.440;2023-03-01T02:28:42;-0.80;99.90
7155;DHT22;3619;53.784;10.440;2023-03-01T02:31:13;-0.80;99.90
7155;DHT22;3619;53.784;10.440;2023-03-01T02:33:58;-0.80;99.90
7155;DHT22;3619;53.784;10.440;2023-03-01T02:36:28;-0.90;99.90
7155;DHT22;3619;53.784;10.440;2023-03-01T02:38:58;-0.90;99.90
7155;DHT22;3619;53.784;10.440;2023-03-01T02:41:28;-0.90;99.90
7155;DHT22;3619;53.784;10.440;2023-03-01T02:43:59;-0.90;99.90
7155;DHT22;3619;53.784;10.440;2023-03-01T02:46:26;-0.90;99.90
7155;DHT22;3619;53.784;10.440;2023-03-01T02:48:55;-0.80;99.90
7155;DHT22;3619;53.784;10.440;2023-03-01T02:51:31;-0.80;99.90
7155;DHT22;3619;53.784;10.440;2023-03-01T02:54:08;-0.70;99.90
7155;DHT22;3619;53.784;10.440;2023-03-01T02:56:36;-0.70;99.90
7155;DHT22;3619;53.784;10.440;2023-03-01T02:59:05;-0.60;99.90
7155;DHT22;3619;53.784;10.440;2023-03-01T03:01:32;-0.60;99.90
7155;DHT22;3619;53.784;10.440;2023-03-01T03:04:04;-0.50;99.90
7155;DHT22;3619;53.784;10.440;2023-03-01T03:06:31;-0.60;99.90
7155;DHT22;3619;53.784;10.440;2023-03-01T03:08:58;-0.50;99.90
7155;DHT22;3619;53.784;10.440;2023-03-01T03:11:25;-0.50;99.90
7155;DHT22;3619;53.784;10.440;2023-03-01T03:13:53;-0.40;99.90
7155;DHT22;3619;53.784;10.440;2023-03-01T03:16:21;-0.50;99.90
7155;DHT22;3619;53.784;10.440;2023-03-01T03:18:48;-0.40;99.90
7155;DHT22;3619;53.784;10.440;2023-03-01T03:21:15;-0.40;99.90
7155;DHT22;3619;53.784;10.440;2023-03-01T03:23:43;-0.30;99.90
7155;DHT22;3619;53.784;10.440;2023-03-01T03:26:10;-0.30;99.90
7155;DHT22;3619;53.784;10.440;2023-03-01T03:28:39;-0.30;99.90
7155;DHT22;3619;53.784;10.440;2023-03-01T03:31:06;-0.30;99.90
7155;DHT22;3619;53.784;10.440;2023-03-01T03:33:35;-0.40;99.90
7155;DHT22;3619;53.784;10.440;2023-03-01T03:36:03;-0.30;99.90
7155;DHT22;3619;53.784;10.440;2023-03-01T03:38:29;-0.40;99.90
7155;DHT22;3619;53.784;10.440;2023-03-01T03:41:01;-0.40;99.90
7155;DHT22;3619;53.784;10.440;2023-03-01T03:43:29;-0.40;99.90
7155;DHT22;3619;53.784;10.440;2023-03-01T03:45:56;-0.30;99.90
7155;DHT22;3619;53.784;10.440;2023-03-01T03:48:23;-0.30;99.90
7155;DHT22;3619;53.784;10.440;2023-03-01T03:50:53;-0.20;99.90
7155;DHT22;3619;53.784;10.440;2023-03-01T03:53:21;-0.20;99.90
7155;DHT22;3619;53.784;10.440;2023-03-01T03:55:49;-0.20;99.90
7155;DHT22;3619;53.784;10.440;2023-03-01T03:58:18;-0.10;99.90
7155;DHT22;3619;53.784;10.440;2023-03-01T04:00:47;-0.10;99.90
7155;DHT22;3619;53.784;10.440;2023-03-01T04:03:15;-0.10;99.90
7155;DHT22;3619;53.784;10.440;2023-03-01T04:05:45;0.00;99.90
7155;DHT22;3619;53.784;10.440;2023-03-01T04:08:13;0.10;99.90
7155;DHT22;3619;53.784;10.440;2023-03-01T04:10:42;0.10;99.90
7155;DHT22;3619;53.784;10.440;2023-03-01T04:13:12;0.20;99.90
7155;DHT22;3619;53.784;10.440;2023-03-01T04:15:40;0.30;99.90
7155;DHT22;3619;53.784;10.440;2023-03-01T04:18:09;0.30;99.90
7155;DHT22;3619;53.784;10.440;2023-03-01T04:20:36;0.40;99.90
7155;DHT22;3619;53.784;10.440;2023-03-01T04:23:05;0.40;99.90
7155;DHT22;3619;53.784;10.440;2023-03-01T04:25:41;0.40;99.90
7155;DHT22;3619;53.784;10.440;2023-03-01T04:28:08;0.40;99.90
7155;DHT22;3619;53.784;10.440;2023-03-01T04:30:35;0.50;99.90
7155;DHT22;3619;53.784;10.440;2023-03-01T04:33:04;0.50;99.90
7155;DHT22;3619;53.784;10.440;2023-03-01T04:35:31;0.50;99.90
7155;DHT22;3619;53.784;10.440;2023-03-01T04:37:58;0.50;99.90
7155;DHT22;3619;53.784;10.440;2023-03-01T04:40:25;0.50;99.90
7155;DHT22;3619;53.784;10.440;2023-03-01T04:42:53;0.50;99.90
7155;DHT22;3619;53.784;10.440;2023-03-01T04:45:20;0.50;99.90
7155;DHT22;3619;53.784;10.440;2023-03-01T04:47:47;0.60;99.90
7155;DHT22;3619;53.784;10.440;2023-03-01T04:50:16;0.60;99.90
7155;DHT22;3619;53.784;10.440;2023-03-01T04:52:46;0.50;99.90
7155;DHT22;3619;53.784;10.440;2023-03-01T04:55:14;0.60;99.90
7155;DHT22;3619;53.784;10.440;2023-03-01T04:57:41;0.60;99.90
7155;DHT22;3619;53.784;10.440;2023-03-01T05:00:12;0.50;99.90
7155;DHT22;3619;53.784;10.440;2023-03-01T05:02:50;0.60;99.90
7155;DHT22;3619;53.784;10.440;2023-03-01T05:05:20;0.50;99.90
7155;DHT22;3619;53.784;10.440;2023-03-01T05:07:51;0.50;99.90
7155;DHT22;3619;53.784;10.440;2023-03-01T05:10:18;0.50;99.90
7155;DHT22;3619;53.784;10.440;2023-03-01T05:12:45;0.50;99.90
7155;DHT22;3619;53.784;10.440;2023-03-01T05:15:13;0.60;99.90
7155;DHT22;3619;53.784;10.440;2023-03-01T05:17:40;0.50;99.90
7155;DHT22;3619;53.784;10.440;2023-03-01T05:20:08;0.50;99.90
7155;DHT22;3619;53.784;10.440;2023-03-01T05:22:39;0.50;99.90
7155;DHT22;3619;53.784;10.440;2023-03-01T05:25:07;0.50;99.90
7155;DHT22;3619;53.784;10.440;2023-03-01T05:27:34;0.60;99.90
7155;DHT22;3619;53.784;10.440;2023-03-01T05:30:01;0.50;99.90
7155;DHT22;3619;53.784;10.440;2023-03-01T05:32:41;0.50;99.90
7155;DHT22;3619;53.784;10.440;2023-03-01T05:35:10;0.50;99.90
7155;DHT22;3619;53.784;10.440;2023-03-01T05:37:39;0.50;99.90
7155;DHT22;3619;53.784;10.440;2023-03-01T05:40:08;0.60;99.90
7155;DHT22;3619;53.784;10.440;2023-03-01T05:42:42;0.60;99.90
7155;DHT22;3619;53.784;10.440;2023-03-01T05:45:09;0.60;99.90
7155;DHT22;3619;53.784;10.440;2023-03-01T05:47:36;0.60;99.90
7155;DHT22;3619;53.784;10.440;2023-03-01T05:50:05;0.60;99.90
7155;DHT22;3619;53.784;10.440;2023-03-01T05:52:32;0.70;99.90
7155;DHT22;3619;53.784;10.440;2023-03-01T05:54:59;0.70;99.90
7155;DHT22;3619;53.784;10.440;2023-03-01T05:57:28;0.60;99.90
7155;DHT22;3619;53.784;10.440;2023-03-01T05:59:55;0.60;99.90
7155;DHT22;3619;53.784;10.440;2023-03-01T06:02:22;0.60;99.90
7155;DHT22;3619;53.784;10.440;2023-03-01T06:04:49;0.40;99.90
7155;DHT22;3619;53.784;10.440;2023-03-01T06:07:17;0.40;99.90
7155;DHT22;3619;53.784;10.440;2023-03-01T06:09:45;0.30;99.90
7155;DHT22;3619;53.784;10.440;2023-03-01T06:12:12;0.30;99.90
7155;DHT22;3619;53.784;10.440;2023-03-01T06:14:39;0.10;99.90
7155;DHT22;3619;53.784;10.440;2023-03-01T06:17:05;0.00;99.90
7155;DHT22;3619;53.784;10.440;2023-03-01T06:19:32;-0.10;99.90
7155;DHT22;3619;53.784;10.440;2023-03-01T06:21:59;-0.10;99.90
7155;DHT22;3619;53.784;10.440;2023-03-01T06:24:27;-0.20;99.90
7155;DHT22;3619;53.784;10.440;2023-03-01T06:26:54;-0.20;99.90
7155;DHT22;3619;53.784;10.440;2023-03-01T06:29:23;-0.20;99.90
7155;DHT22;3619;53.784;10.440;2023-03-01T06:31:49;-0.20;99.90
7155;DHT22;3619;53.784;10.440;2023-03-01T06:34:17;-0.30;99.90
7155;DHT22;3619;53.784;10.440;2023-03-01T06:36:46;-0.30;99.90
7155;DHT22;3619;53.784;10.440;2023-03-01T06:39:12;-0.20;99.90
7155;DHT22;3619;53.784;10.440;2023-03-01T06:41:40;-0.20;99.90
7155;DHT22;3619;53.784;10.440;2023-03-01T06:44:07;-0.20;99.90
7155;DHT22;3619;53.784;10.440;2023-03-01T06:46:34;-0.10;99.90
7155;DHT22;3619;53.784;10.440;2023-03-01T06:49:03;0.00;99.90
7155;DHT22;3619;53.784;10.440;2023-03-01T06:51:35;0.00;99.90
7155;DHT22;3619;53.784;10.440;2023-03-01T06:54:01;0.00;99.90
7155;DHT22;3619;53.784;10.440;2023-03-01T06:56:28;0.00;99.90
7155;DHT22;3619;53.784;10.440;2023-03-01T06:58:56;0.10;99.90
7155;DHT22;3619;53.784;10.440;2023-03-01T07:01:23;0.20;99.90
7155;DHT22;3619;53.784;10.440;2023-03-01T07:03:50;0.30;99.90
7155;DHT22;3619;53.784;10.440;2023-03-01T07:06:16;0.30;99.90
7155;DHT22;3619;53.784;10.440;2023-03-01T07:08:44;0.40;99.90
7155;DHT22;3619;53.784;10.440;2023-03-01T07:11:10;0.50;99.90
7155;DHT22;3619;53.784;10.440;2023-03-01T07:13:38;0.50;99.90
7155;DHT22;3619;53.784;10.440;2023-03-01T07:16:07;0.60;99.90
7155;DHT22;3619;53.784;10.440;2023-03-01T07:18:34;0.70;99.90
7155;DHT22;3619;53.784;10.440;2023-03-01T07:21:04;0.70;99.90
7155;DHT22;3619;53.784;10.440;2023-03-01T07:23:34;0.80;99.90
7155;DHT22;3619;53.784;10.440;2023-03-01T07:26:01;0.80;99.90
7155;DHT22;3619;53.784;10.440;2023-03-01T07:28:28;0.80;99.90
7155;DHT22;3619;53.784;10.440;2023-03-01T07:30:55;0.90;99.90
7155;DHT22;3619;53.784;10.440;2023-03-01T07:33:23;0.90;99.90
7155;DHT22;3619;53.784;10.440;2023-03-01T07:35:59;1.00;99.90
7155;DHT22;3619;53.784;10.440;2023-03-01T07:38:25;1.00;99.90
7155;DHT22;3619;53.784;10.440;2023-03-01T07:40:52;1.10;99.90
7155;DHT22;3619;53.784;10.440;2023-03-01T07:43:19;1.10;99.90
7155;DHT22;3619;53.784;10.440;2023-03-01T07:45:46;1.10;99.90
7155;DHT22;3619;53.784;10.440;2023-03-01T07:48:13;1.10;99.90
7155;DHT22;3619;53.784;10.440;2023-03-01T07:50:41;1.10;99.90
7155;DHT22;3619;53.784;10.440;2023-03-01T07:53:08;1.10;99.90
7155;DHT22;3619;53.784;10.440;2023-03-01T07:55:35;1.10;99.90
7155;DHT22;3619;53.784;10.440;2023-03-01T07:58:02;1.10;99.90
7155;DHT22;3619;53.784;10.440;2023-03-01T08:00:29;1.20;99.90
7155;DHT22;3619;53.784;10.440;2023-03-01T08:02:58;1.20;99.90
7155;DHT22;3619;53.784;10.440;2023-03-01T08:05:25;1.30;99.90
7155;DHT22;3619;53.784;10.440;2023-03-01T08:07:53;1.40;99.90
7155;DHT22;3619;53.784;10.440;2023-03-01T08:10:20;1.60;99.90
7155;DHT22;3619;53.784;10.440;2023-03-01T08:12:47;1.70;99.90
7155;DHT22;3619;53.784;10.440;2023-03-01T08:15:14;1.90;99.90
7155;DHT22;3619;53.784;10.440;2023-03-01T08:17:40;2.10;99.90
7155;DHT22;3619;53.784;10.440;2023-03-01T08:20:08;2.20;99.90
7155;DHT22;3619;53.784;10.440;2023-03-01T08:22:37;2.10;99.90
7155;DHT22;3619;53.784;10.440;2023-03-01T08:25:06;2.20;99.90
7155;DHT22;3619;53.784;10.440;2023-03-01T08:27:33;2.20;99.90
7155;DHT22;3619;53.784;10.440;2023-03-01T08:30:03;2.20;99.90
7155;DHT22;3619;53.784;10.440;2023-03-01T08:32:32;2.20;99.90
7155;DHT22;3619;53.784;10.440;2023-03-01T08:35:01;2.30;99.90
7155;DHT22;3619;53.784;10.440;2023-03-01T08:37:28;2.30;99.90
7155;DHT22;3619;53.784;10.440;2023-03-01T08:39:56;2.30;99.90
7155;DHT22;3619;53.784;10.440;2023-03-01T08:42:24;2.10;99.90
7155;DHT22;3619;53.784;10.440;2023-03-01T08:44:51;2.10;99.90
7155;DHT22;3619;53.784;10.440;2023-03-01T08:47:17;2.10;99.90
7155;DHT22;3619;53.784;10.440;2023-03-01T08:49:44;2.20;99.90
7155;DHT22;3619;53.784;10.440;2023-03-01T08:52:11;2.20;99.90
7155;DHT22;3619;53.784;10.440;2023-03-01T08:54:38;2.40;99.90
7155;DHT22;3619;53.784;10.440;2023-03-01T08:57:04;2.40;99.90
7155;DHT22;3619;53.784;10.440;2023-03-01T08:59:32;2.40;99.90
7155;DHT22;3619;53.784;10.440;2023-03-01T09:02:02;2.50;99.90
7155;DHT22;3619;53.784;10.440;2023-03-01T09:04:29;2.60;99.90
7155;DHT22;3619;53.784;10.440;2023-03-01T09:06:56;2.70;99.90
7155;DHT22;3619;53.784;10.440;2023-03-01T09:09:22;2.70;99.90
7155;DHT22;3619;53.784;10.440;2023-03-01T09:11:49;2.80;99.90
7155;DHT22;3619;53.784;10.440;2023-03-01T09:14:16;2.80;99.90
7155;DHT22;3619;53.784;10.440;2023-03-01T09:16:44;3.00;99.90
7155;DHT22;3619;53.784;10.440;2023-03-01T09:19:12;3.30;99.90
7155;DHT22;3619;53.784;10.440;2023-03-01T09:21:39;3.10;99.90
7155;DHT22;3619;53.784;10.440;2023-03-01T09:24:13;3.00;99.90
7155;DHT22;3619;53.784;10.440;2023-03-01T09:26:40;2.90;99.90
7155;DHT22;3619;53.784;10.440;2023-03-01T09:29:06;3.00;99.90
7155;DHT22;3619;53.784;10.440;2023-03-01T09:31:35;3.00;99.90
7155;DHT22;3619;53.784;10.440;2023-03-01T09:34:03;3.20;99.90
7155;DHT22;3619;53.784;10.440;2023-03-01T09:36:29;3.20;99.90
7155;DHT22;3619;53.784;10.440;2023-03-01T09:38:57;3.40;99.90
7155;DHT22;3619;53.784;10.440;2023-03-01T09:41:42;3.50;99.90
7155;DHT22;3619;53.784;10.440;2023-03-01T09:44:20;3.50;99.90
7155;DHT22;3619;53.784;10.440;2023-03-01T09:46:48;3.40;99.90
7155;DHT22;3619;53.784;10.440;2023-03-01T09:49:18;3.30;99.90
7155;DHT22;3619;53.784;10.440;2023-03-01T09:51:54;3.50;99.90
7155;DHT22;3619;53.784;10.440;2023-03-01T09:54:22;3.40;99.90
7155;DHT22;3619;53.784;10.440;2023-03-01T09:57:14;3.40;99.90
7155;DHT22;3619;53.784;10.440;2023-03-01T10:00:00;3.50;99.90
7155;DHT22;3619;53.784;10.440;2023-03-01T10:02:37;3.50;99.90
7155;DHT22;3619;53.784;10.440;2023-03-01T10:05:14;3.20;99.90
7155;DHT22;3619;53.784;10.440;2023-03-01T10:07:47;3.20;99.90
7155;DHT22;3619;53.784;10.440;2023-03-01T10:10:25;3.10;99.90
7155;DHT22;3619;53.784;10.440;2023-03-01T10:12:53;3.20;99.90
7155;DHT22;3619;53.784;10.440;2023-03-01T10:15:28;3.30;99.90
7155;DHT22;3619;53.784;10.440;2023-03-01T10:18:04;3.30;99.90
7155;DHT22;3619;53.784;10.440;2023-03-01T10:20:42;3.50;99.90
7155;DHT22;3619;53.784;10.440;2023-03-01T10:23:10;3.50;99.90
7155;DHT22;3619;53.784;10.440;2023-03-01T10:25:47;3.70;99.90
7155;DHT22;3619;53.784;10.440;2023-03-01T10:28:17;3.80;99.90
7155;DHT22;3619;53.784;10.440;2023-03-01T10:30:46;4.00;99.90
7155;DHT22;3619;53.784;10.440;2023-03-01T10:33:17;4.10;99.90
7155;DHT22;3619;53.784;10.440;2023-03-01T10:35:48;4.30;99.90
7155;DHT22;3619;53.784;10.440;2023-03-01T10:38:16;4.50;99.90
7155;DHT22;3619;53.784;10.440;2023-03-01T10:40:54;4.70;99.90
7155;DHT22;3619;53.784;10.440;2023-03-01T10:43:23;4.80;99.90
7155;DHT22;3619;53.784;10.440;2023-03-01T10:45:52;4.90;99.90
7155;DHT22;3619;53.784;10.440;2023-03-01T10:48:20;5.10;99.90
7155;DHT22;3619;53.784;10.440;2023-03-01T10:51:03;5.10;99.90
7155;DHT22;3619;53.784;10.440;2023-03-01T10:53:34;5.00;99.90
7155;DHT22;3619;53.784;10.440;2023-03-01T10:56:04;5.20;99.90
7155;DHT22;3619;53.784;10.440;2023-03-01T10:58:33;5.40;99.90
7155;DHT22;3619;53.784;10.440;2023-03-01T11:01:03;5.70;99.90
7155;DHT22;3619;53.784;10.440;2023-03-01T11:03:31;5.80;99.90
7155;DHT22;3619;53.784;10.440;2023-03-01T11:06:03;6.10;99.90
7155;DHT22;3619;53.784;10.440;2023-03-01T11:08:39;5.90;99.90
7155;DHT22;3619;53.784;10.440;2023-03-01T11:11:18;6.10;99.90
7155;DHT22;3619;53.784;10.440;2023-03-01T11:13:54;6.40;99.90
7155;DHT22;3619;53.784;10.440;2023-03-01T11:16:34;6.60;99.90
7155;DHT22;3619;53.784;10.440;2023-03-01T11:19:19;6.40;99.90
7155;DHT22;3619;53.784;10.440;2023-03-01T11:22:01;6.30;99.90
7155;DHT22;3619;53.784;10.440;2023-03-01T11:24:37;6.40;99.90
7155;DHT22;3619;53.784;10.440;2023-03-01T11:27:11;6.80;99.90
7155;DHT22;3619;53.784;10.440;2023-03-01T11:29:44;7.00;99.90
7155;DHT22;3619;53.784;10.440;2023-03-01T11:32:13;7.30;99.90
7155;DHT22;3619;53.784;10.440;2023-03-01T11:34:45;7.30;99.90
7155;DHT22;3619;53.784;10.440;2023-03-01T11:37:34;7.30;99.90
7155;DHT22;3619;53.784;10.440;2023-03-01T11:40:11;7.30;99.90
7155;DHT22;3619;53.784;10.440;2023-03-01T11:42:46;7.30;99.90
7155;DHT22;3619;53.784;10.440;2023-03-01T11:45:15;7.30;99.90
7155;DHT22;3619;53.784;10.440;2023-03-01T11:47:55;7.30;99.90
7155;DHT22;3619;53.784;10.440;2023-03-01T11:50:29;7.00;99.90
7155;DHT22;3619;53.784;10.440;2023-03-01T11:53:11;6.70;99.90
7155;DHT22;3619;53.784;10.440;2023-03-01T11:55:51;6.90;99.90
7155;DHT22;3619;53.784;10.440;2023-03-01T11:58:34;7.10;99.90
7155;DHT22;3619;53.784;10.440;2023-03-01T12:01:16;7.10;99.90
7155;DHT22;3619;53.784;10.440;2023-03-01T12:06:54;6.80;99.90
7155;DHT22;3619;53.784;10.440;2023-03-01T12:09:58;6.90;99.90
7155;DHT22;3619;53.784;10.440;2023-03-01T12:12:33;7.10;99.90
7155;DHT22;3619;53.784;10.440;2023-03-01T12:15:31;7.20;99.90
7155;DHT22;3619;53.784;10.440;2023-03-01T12:21:00;7.10;99.90
7155;DHT22;3619;53.784;10.440;2023-03-01T13:09:23;8.00;99.90
7155;DHT22;3619;53.784;10.440;2023-03-01T13:15:39;8.00;99.90
7155;DHT22;3619;53.784;10.440;2023-03-01T13:18:46;7.80;99.90
7155;DHT22;3619;53.784;10.440;2023-03-01T13:21:38;7.90;99.90
7155;DHT22;3619;53.784;10.440;2023-03-01T13:27:40;8.00;99.90
7155;DHT22;3619;53.784;10.440;2023-03-01T13:30:40;8.00;99.90
7155;DHT22;3619;53.784;10.440;2023-03-01T13:33:39;7.90;99.90
7155;DHT22;3619;53.784;10.440;2023-03-01T13:36:08;7.90;99.90
7155;DHT22;3619;53.784;10.440;2023-03-01T13:38:38;8.10;99.90
7155;DHT22;3619;53.784;10.440;2023-03-01T13:41:07;8.10;99.90
7155;DHT22;3619;53.784;10.440;2023-03-01T13:43:35;8.00;99.90
7155;DHT22;3619;53.784;10.440;2023-03-01T13:46:09;8.00;99.90
7155;DHT22;3619;53.784;10.440;2023-03-01T13:48:38;8.00;99.90
7155;DHT22;3619;53.784;10.440;2023-03-01T13:51:09;7.80;99.90
7155;DHT22;3619;53.784;10.440;2023-03-01T13:53:40;8.00;99.90
7155;DHT22;3619;53.784;10.440;2023-03-01T13:56:12;8.10;99.90
7155;DHT22;3619;53.784;10.440;2023-03-01T13:58:50;8.10;99.90
7155;DHT22;3619;53.784;10.440;2023-03-01T14:01:25;8.00;99.90
7155;DHT22;3619;53.784;10.440;2023-03-01T14:03:52;8.10;99.90
7155;DHT22;3619;53.784;10.440;2023-03-01T14:06:21;8.10;99.90
7155;DHT22;3619;53.784;10.440;2023-03-01T14:08:51;8.00;99.90
7155;DHT22;3619;53.784;10.440;2023-03-01T14:11:59;8.00;99.90
7155;DHT22;3619;53.784;10.440;2023-03-01T14:14:34;7.90;99.90
7155;DHT22;3619;53.784;10.440;2023-03-01T14:17:29;7.70;99.90
7155;DHT22;3619;53.784;10.440;2023-03-01T14:20:03;7.70;99.90
7155;DHT22;3619;53.784;10.440;2023-03-01T14:22:35;7.60;99.90
7155;DHT22;3619;53.784;10.440;2023-03-01T14:25:05;7.50;99.90
7155;DHT22;3619;53.784;10.440;2023-03-01T14:27:37;7.50;99.90
7155;DHT22;3619;53.784;10.440;2023-03-01T14:30:12;7.50;99.90
7155;DHT22;3619;53.784;10.440;2023-03-01T14:32:40;7.50;99.90
7155;DHT22;3619;53.784;10.440;2023-03-01T14:35:23;7.40;99.90
7155;DHT22;3619;53.784;10.440;2023-03-01T14:37:51;7.30;99.90
7155;DHT22;3619;53.784;10.440;2023-03-01T14:40:24;7.30;99.90
7155;DHT22;3619;53.784;10.440;2023-03-01T14:42:54;7.30;99.90
7155;DHT22;3619;53.784;10.440;2023-03-01T14:45:22;7.20;99.90
7155;DHT22;3619;53.784;10.440;2023-03-01T14:47:49;7.10;99.90
7155;DHT22;3619;53.784;10.440;2023-03-01T14:50:23;7.00;99.90
7155;DHT22;3619;53.784;10.440;2023-03-01T14:52:52;6.90;99.90
7155;DHT22;3619;53.784;10.440;2023-03-01T14:55:42;6.80;99.90
7155;DHT22;3619;53.784;10.440;2023-03-01T14:58:18;6.70;99.90
7155;DHT22;3619;53.784;10.440;2023-03-01T15:00:50;6.60;99.90
7155;DHT22;3619;53.784;10.440;2023-03-01T15:03:24;6.50;99.90
7155;DHT22;3619;53.784;10.440;2023-03-01T15:05:54;6.40;99.90
7155;DHT22;3619;53.784;10.440;2023-03-01T15:08:23;6.40;99.90
7155;DHT22;3619;53.784;10.440;2023-03-01T15:11:00;6.30;99.90
7155;DHT22;3619;53.784;10.440;2023-03-01T15:13:31;6.20;99.90
7155;DHT22;3619;53.784;10.440;2023-03-01T15:16:06;6.20;99.90
7155;DHT22;3619;53.784;10.440;2023-03-01T15:18:36;6.00;99.90
7155;DHT22;3619;53.784;10.440;2023-03-01T15:21:08;6.00;99.90
7155;DHT22;3619;53.784;10.440;2023-03-01T15:23:37;5.90;99.90
7155;DHT22;3619;53.784;10.440;2023-03-01T15:26:05;5.80;99.90
7155;DHT22;3619;53.784;10.440;2023-03-01T15:28:43;5.70;99.90
7155;DHT22;3619;53.784;10.440;2023-03-01T15:31:20;5.70;99.90
7155;DHT22;3619;53.784;10.440;2023-03-01T15:33:47;5.70;99.90
7155;DHT22;3619;53.784;10.440;2023-03-01T15:36:33;5.60;99.90
7155;DHT22;3619;53.784;10.440;2023-03-01T15:39:02;5.40;99.90
7155;DHT22;3619;53.784;10.440;2023-03-01T15:55:25;4.50;99.90
7155;DHT22;3619;53.784;10.440;2023-03-01T16:06:39;4.10;99.90
7155;DHT22;3619;53.784;10.440;2023-03-01T16:09:02;4.00;99.90
7155;DHT22;3619;53.784;10.440;2023-03-01T16:21:52;3.50;99.90
7155;DHT22;3619;53.784;10.440;2023-03-01T16:31:54;3.20;99.90
7155;DHT22;3619;53.784;10.440;2023-03-01T16:34:35;3.10;99.90
7155;DHT22;3619;53.784;10.440;2023-03-01T16:37:48;2.90;99.90
7155;DHT22;3619;53.784;10.440;2023-03-01T16:40:52;2.70;99.90
7155;DHT22;3619;53.784;10.440;2023-03-01T16:44:26;2.50;99.90
7155;DHT22;3619;53.784;10.440;2023-03-01T16:47:43;2.40;99.90
7155;DHT22;3619;53.784;10.440;2023-03-01T16:50:10;2.20;99.90
7155;DHT22;3619;53.784;10.440;2023-03-01T16:52:38;2.20;99.90
7155;DHT22;3619;53.784;10.440;2023-03-01T16:55:09;2.20;99.90
7155;DHT22;3619;53.784;10.440;2023-03-01T16:57:39;2.20;99.90
7155;DHT22;3619;53.784;10.440;2023-03-01T17:00:08;2.30;99.90
7155;DHT22;3619;53.784;10.440;2023-03-01T17:02:36;2.30;99.90
7155;DHT22;3619;53.784;10.440;2023-03-01T17:05:04;2.30;99.90
7155;DHT22;3619;53.784;10.440;2023-03-01T17:07:32;2.30;99.90
7155;DHT22;3619;53.784;10.440;2023-03-01T17:09:59;2.30;99.90
7155;DHT22;3619;53.784;10.440;2023-03-01T17:12:27;2.40;99.90
7155;DHT22;3619;53.784;10.440;2023-03-01T17:14:54;2.40;99.90
7155;DHT22;3619;53.784;10.440;2023-03-01T17:17:21;2.50;99.90
7155;DHT22;3619;53.784;10.440;2023-03-01T17:19:48;2.50;99.90
7155;DHT22;3619;53.784;10.440;2023-03-01T17:22:15;2.60;99.90
7155;DHT22;3619;53.784;10.440;2023-03-01T17:24:43;2.60;99.90
7155;DHT22;3619;53.784;10.440;2023-03-01T17:27:10;2.60;99.90
7155;DHT22;3619;53.784;10.440;2023-03-01T17:29:40;2.70;99.90
7155;DHT22;3619;53.784;10.440;2023-03-01T17:32:07;2.70;99.90
7155;DHT22;3619;53.784;10.440;2023-03-01T17:38:41;2.90;99.90
7155;DHT22;3619;53.784;10.440;2023-03-01T17:41:18;2.90;99.90
7155;DHT22;3619;53.784;10.440;2023-03-01T17:44:51;3.00;99.90
7155;DHT22;3619;53.784;10.440;2023-03-01T17:54:53;3.00;99.90
7155;DHT22;3619;53.784;10.440;2023-03-01T17:57:19;3.00;99.90
7155;DHT22;3619;53.784;10.440;2023-03-01T17:59:47;3.00;99.90
7155;DHT22;3619;53.784;10.440;2023-03-01T18:02:14;3.00;99.90
7155;DHT22;3619;53.784;10.440;2023-03-01T18:04:43;3.00;99.90
7155;DHT22;3619;53.784;10.440;2023-03-01T18:07:10;3.00;99.90
7155;DHT22;3619;53.784;10.440;2023-03-01T18:09:37;2.90;99.90
7155;DHT22;3619;53.784;10.440;2023-03-01T18:12:04;2.90;99.90
7155;DHT22;3619;53.784;10.440;2023-03-01T18:14:30;2.90;99.90